createdAt,value
2022-08-11T00:01:16.643Z,2.85
2022-08-11T00:06:41.005Z,3.00
2022-08-11T00:12:04.949Z,2.33
2022-08-11T00:17:31.885Z,3.58
2022-08-11T00:23:03.140Z,2.33
2022-08-11T00:28:28.434Z,2.42
2022-08-11T00:33:53.375Z,3.25
2022-08-11T00:39:17.553Z,3.10
2022-08-11T00:44:51.569Z,3.38
2022-08-11T00:50:23.178Z,3.03
2022-08-11T00:56:09.541Z,2.55
2022-08-11T01:01:56.874Z,2.70
2022-08-11T01:08:02.448Z,2.70
2022-08-11T01:14:16.625Z,2.15
2022-08-11T01:20:44.889Z,2.63
2022-08-11T01:26:21.994Z,2.50
2022-08-11T01:32:23.269Z,2.20
2022-08-11T01:38:06.822Z,3.42
2022-08-11T01:44:15.706Z,2.70
2022-08-11T01:50:07.290Z,2.38
2022-08-11T01:55:41.341Z,2.50
2022-08-11T02:01:12.766Z,3.17
2022-08-11T02:06:58.373Z,3.00
2022-08-11T02:12:33.589Z,3.40
2022-08-11T02:18:07.016Z,2.63
2022-08-11T02:24:05.712Z,2.38
2022-08-11T02:29:31.215Z,2.72
2022-08-11T02:35:01.519Z,2.67
2022-08-11T02:40:37.415Z,2.85
2022-08-11T02:46:20.293Z,3.47
2022-08-11T02:51:58.254Z,3.60
2022-08-11T02:57:25.009Z,3.15
2022-08-11T03:02:56.629Z,3.47
2022-08-11T03:08:29.199Z,2.97
2022-08-11T03:14:18.717Z,3.15
2022-08-11T03:19:49.606Z,3.40
2022-08-11T03:25:19.129Z,3.47
2022-08-11T03:30:48.845Z,3.67
2022-08-11T03:36:21.492Z,3.95
2022-08-11T03:42:03.580Z,3.75
2022-08-11T03:47:41.358Z,3.63
2022-08-11T03:53:31.918Z,4.07
2022-08-11T03:59:33.398Z,3.30
2022-08-11T04:05:24.810Z,4.38
2022-08-11T04:11:08.607Z,3.30
2022-08-11T04:16:44.478Z,3.75
2022-08-11T04:22:52.850Z,3.25
2022-08-11T04:28:51.920Z,4.32
2022-08-11T04:34:37.694Z,3.72
2022-08-11T04:40:33.765Z,4.22
2022-08-11T04:46:38.684Z,4.28
2022-08-11T04:52:47.694Z,3.50
2022-08-11T04:58:36.062Z,3.70
2022-08-11T05:04:30.046Z,4.60
2022-08-11T05:10:16.405Z,4.80
2022-08-11T05:16:04.790Z,3.70
2022-08-11T05:21:45.817Z,3.67
2022-08-11T05:27:30.091Z,3.88
2022-08-11T05:33:16.408Z,3.47
2022-08-11T05:38:57.500Z,3.63
2022-08-11T05:44:39.903Z,3.53
2022-08-11T05:50:31.463Z,3.95
2022-08-11T05:56:14.127Z,4.30
2022-08-11T06:01:39.321Z,3.47
2022-08-11T06:07:06.319Z,4.18
2022-08-11T06:12:32.453Z,4.28
2022-08-11T06:17:58.535Z,4.07
2022-08-11T06:23:23.754Z,2.67
2022-08-11T06:28:49.348Z,4.40
2022-08-11T06:34:27.069Z,3.58
2022-08-11T06:40:03.100Z,3.47
2022-08-11T06:45:31.543Z,3.08
2022-08-11T06:51:13.310Z,3.58
2022-08-11T07:02:45.388Z,2.97
2022-08-11T07:08:51.791Z,2.85
2022-08-11T07:14:38.645Z,3.42
2022-08-11T07:20:21.558Z,2.42
2022-08-11T07:26:27.359Z,2.65
2022-08-11T07:31:53.919Z,3.33
2022-08-11T07:37:19.778Z,2.45
2022-08-11T07:42:46.649Z,2.50
2022-08-11T07:48:28.638Z,2.80
2022-08-11T07:53:58.575Z,2.63
2022-08-11T08:00:03.359Z,2.67
2022-08-11T08:05:56.658Z,2.42
2022-08-11T08:11:39.392Z,2.35
2022-08-11T08:17:21.786Z,2.28
2022-08-11T08:22:48.455Z,2.25
2022-08-11T08:28:14.612Z,2.17
2022-08-11T08:33:42.266Z,2.03
2022-08-11T08:39:05.600Z,2.17
2022-08-11T08:44:39.217Z,2.00
2022-08-11T08:50:08.418Z,1.55
2022-08-11T08:55:32.170Z,2.30
2022-08-11T09:00:56.228Z,2.00
2022-08-11T09:06:21.917Z,2.03
2022-08-11T09:11:53.422Z,2.35
2022-08-11T09:17:17.159Z,2.40
2022-08-11T09:28:46.500Z,2.33
2022-08-11T09:34:11.236Z,1.88
2022-08-11T09:39:56.803Z,2.72
2022-08-11T09:45:20.043Z,2.53
2022-08-11T09:50:43.486Z,2.30
2022-08-11T09:56:28.859Z,2.47
2022-08-11T10:01:56.171Z,3.88
2022-08-11T10:07:21.266Z,1.90
2022-08-11T10:12:51.597Z,2.13
2022-08-11T10:18:37.933Z,1.80
2022-08-11T10:24:19.618Z,2.67
2022-08-11T10:30:01.450Z,1.73
2022-08-11T10:35:26.395Z,1.92
2022-08-11T10:41:18.868Z,1.90
2022-08-11T10:47:00.994Z,2.45
2022-08-11T10:52:41.962Z,2.28
2022-08-11T10:58:24.754Z,2.10
2022-08-11T11:03:52.512Z,2.42
2022-08-11T11:09:18.545Z,1.83
2022-08-11T11:15:00.941Z,2.05
2022-08-11T11:20:37.140Z,1.50
2022-08-11T11:26:12.618Z,1.67
2022-08-11T11:31:49.303Z,1.65
2022-08-11T11:37:17.423Z,1.30
2022-08-11T11:42:45.734Z,1.55
2022-08-11T11:48:09.301Z,1.60
2022-08-11T11:53:34.243Z,1.40
2022-08-11T11:59:15.368Z,1.48
2022-08-11T12:04:39.242Z,1.20
2022-08-11T12:10:10.341Z,1.30
2022-08-11T12:16:33.612Z,1.70
2022-08-11T12:21:18.040Z,1.40
2022-08-11T12:27:15.951Z,1.10
2022-08-11T12:32:41.966Z,1.25
2022-08-11T12:38:10.907Z,1.20
2022-08-11T12:43:57.129Z,1.17
2022-08-11T12:49:44.789Z,1.40
2022-08-11T12:55:13.663Z,1.98
2022-08-11T13:00:56.578Z,1.20
2022-08-11T13:06:20.766Z,1.50
2022-08-11T13:12:01.700Z,1.83
2022-08-11T13:17:43.665Z,1.83
2022-08-11T13:23:07.485Z,1.67
2022-08-11T13:28:30.767Z,2.78
2022-08-11T13:33:55.522Z,1.60
2022-08-11T13:39:19.411Z,1.60
2022-08-11T13:44:43.819Z,1.73
2022-08-11T13:50:09.637Z,6.47
2022-08-11T13:55:51.459Z,1.40
2022-08-11T14:02:19.221Z,1.35
2022-08-11T14:07:01.653Z,1.33
2022-08-11T14:12:45.018Z,1.52
2022-08-11T14:18:11.296Z,1.92
2022-08-11T14:23:39.844Z,1.45
2022-08-11T14:29:06.569Z,1.48
2022-08-11T14:34:30.902Z,1.42
2022-08-11T14:40:02.842Z,1.90
2022-08-11T14:45:57.581Z,2.20
2022-08-11T14:51:23.985Z,1.83
2022-08-11T14:56:49.295Z,1.73
2022-08-11T15:02:30.580Z,1.95
2022-08-11T15:07:55.532Z,2.97
2022-08-11T15:13:21.204Z,2.33
2022-08-11T15:18:50.036Z,1.88
2022-08-11T15:24:24.070Z,2.30
2022-08-11T15:30:11.089Z,2.33
2022-08-11T15:36:02.758Z,1.73
2022-08-11T15:41:58.201Z,2.10
2022-08-11T15:47:27.318Z,2.50
2022-08-11T15:52:59.415Z,2.00
2022-08-11T15:58:40.911Z,1.35
2022-08-11T16:04:15.355Z,1.90
2022-08-11T16:09:47.456Z,1.83
2022-08-11T16:15:29.539Z,2.47
2022-08-11T16:20:55.735Z,1.95
2022-08-11T16:27:08.965Z,2.40
2022-08-11T16:32:29.579Z,1.83
2022-08-11T16:38:12.787Z,1.58
2022-08-11T16:44:13.462Z,1.83
2022-08-11T16:49:38.650Z,2.25
2022-08-11T16:55:03.851Z,1.95
2022-08-11T17:00:27.669Z,2.53
2022-08-11T17:06:11.284Z,2.25
2022-08-11T17:12:01.179Z,2.05
2022-08-11T17:17:28.055Z,1.95
2022-08-11T17:23:13.346Z,2.20
2022-08-11T17:29:01.121Z,1.85
2022-08-11T17:34:41.538Z,2.00
2022-08-11T17:40:08.810Z,2.20
2022-08-11T17:45:56.695Z,1.92
2022-08-11T17:51:36.683Z,1.83
2022-08-11T17:57:21.123Z,1.80
2022-08-11T18:03:07.239Z,2.03
2022-08-11T18:08:49.163Z,1.58
2022-08-11T18:14:31.877Z,1.85
2022-08-11T18:20:13.805Z,1.70
2022-08-11T18:25:58.724Z,1.70
2022-08-11T18:31:40.497Z,1.80
2022-08-11T18:37:29.139Z,2.60
2022-08-11T18:43:12.094Z,1.75
2022-08-11T18:48:54.665Z,2.13
2022-08-11T19:00:41.715Z,1.60
2022-08-11T19:06:39.853Z,1.80
2022-08-11T19:12:25.336Z,1.27
2022-08-11T19:18:06.197Z,1.77
2022-08-11T19:23:52.901Z,1.75
2022-08-11T19:30:07.956Z,1.67
2022-08-11T19:35:36.817Z,1.63
2022-08-11T19:41:17.915Z,1.20
2022-08-11T19:47:20.277Z,1.27
2022-08-11T19:53:01.527Z,1.23
2022-08-11T19:58:44.373Z,1.67
2022-08-11T20:04:26.378Z,1.42
2022-08-11T20:10:07.964Z,1.55
2022-08-11T20:15:48.616Z,2.42
2022-08-11T20:21:33.480Z,1.52
2022-08-11T20:27:18.941Z,1.83
2022-08-11T20:33:06.195Z,1.80
2022-08-11T20:44:56.203Z,2.15
2022-08-11T20:50:37.280Z,3.22
2022-08-11T20:56:19.823Z,1.80
2022-08-11T21:02:03.060Z,1.63
2022-08-11T21:07:55.629Z,1.63
2022-08-11T21:13:48.161Z,1.58
2022-08-11T21:20:00.245Z,1.67
2022-08-11T21:25:37.285Z,1.80
2022-08-11T21:31:21.875Z,1.67
2022-08-11T21:37:03.757Z,2.00
2022-08-11T21:42:45.275Z,2.83
2022-08-11T21:48:28.250Z,2.03
2022-08-11T21:54:09.336Z,2.30
2022-08-11T22:06:05.059Z,2.00
2022-08-11T22:11:47.862Z,1.63
2022-08-11T22:17:33.199Z,2.50
2022-08-11T22:23:16.169Z,1.85
2022-08-11T22:28:56.836Z,2.58
2022-08-11T22:34:45.004Z,2.13
2022-08-11T22:40:35.299Z,2.38
2022-08-11T22:46:16.480Z,2.10
2022-08-11T22:51:58.385Z,2.00
2022-08-11T22:57:40.857Z,1.90
2022-08-11T23:03:41.920Z,2.05
2022-08-11T23:09:23.372Z,2.03
2022-08-11T23:15:05.186Z,2.45
2022-08-11T23:20:56.270Z,2.50
2022-08-11T23:26:41.376Z,1.95
2022-08-11T23:32:24.585Z,2.40
2022-08-11T23:38:05.600Z,2.10
2022-08-11T23:43:46.274Z,2.83
2022-08-11T23:49:29.178Z,2.63
2022-08-11T23:55:09.794Z,2.25
